createdAt,value
2022-07-27T00:01:05.607Z,15.40
2022-07-27T00:06:09.072Z,15.29
2022-07-27T00:11:12.379Z,15.19
2022-07-27T00:16:15.734Z,15.09
2022-07-27T00:21:19.204Z,14.99
2022-07-27T00:26:23.131Z,14.87
2022-07-27T00:31:26.461Z,14.75
2022-07-27T00:36:29.857Z,14.66
2022-07-27T00:41:33.172Z,14.57
2022-07-27T00:46:36.825Z,14.47
2022-07-27T00:51:40.198Z,14.37
2022-07-27T00:56:44.076Z,14.27
2022-07-27T01:01:47.809Z,14.15
2022-07-27T01:06:51.357Z,14.03
2022-07-27T01:11:54.980Z,13.90
2022-07-27T01:16:58.286Z,13.75
2022-07-27T01:22:02.110Z,13.63
2022-07-27T01:27:06.702Z,13.49
2022-07-27T01:32:10.369Z,13.38
2022-07-27T01:37:13.679Z,13.27
2022-07-27T01:42:17.297Z,13.19
2022-07-27T01:47:20.711Z,13.11
2022-07-27T01:52:24.022Z,13.05
2022-07-27T01:57:27.331Z,13.00
2022-07-27T02:02:30.744Z,12.92
2022-07-27T02:07:34.261Z,12.87
2022-07-27T02:12:38.360Z,12.82
2022-07-27T02:17:42.723Z,12.77
2022-07-27T02:22:47.383Z,12.74
2022-07-27T02:27:50.778Z,12.69
2022-07-27T02:32:54.464Z,12.66
2022-07-27T02:37:58.014Z,12.61
2022-07-27T02:43:01.535Z,12.53
2022-07-27T02:48:04.945Z,12.48
2022-07-27T02:53:11.940Z,12.45
2022-07-27T02:58:15.251Z,12.40
2022-07-27T03:03:18.669Z,12.41
2022-07-27T03:08:22.183Z,12.44
2022-07-27T03:13:26.925Z,12.45
2022-07-27T03:18:30.235Z,12.48
2022-07-27T03:23:33.750Z,12.49
2022-07-27T03:28:37.169Z,12.54
2022-07-27T03:33:40.578Z,12.58
2022-07-27T03:38:43.998Z,12.63
2022-07-27T03:43:47.405Z,12.70
2022-07-27T03:48:50.772Z,12.82
2022-07-27T03:53:54.638Z,12.96
2022-07-27T03:58:57.951Z,13.11
2022-07-27T04:04:01.469Z,13.26
2022-07-27T04:09:08.315Z,13.43
2022-07-27T04:14:13.308Z,13.60
2022-07-27T04:19:16.862Z,13.76
2022-07-27T04:24:20.240Z,13.91
2022-07-27T04:29:23.936Z,14.04
2022-07-27T04:34:27.478Z,14.18
2022-07-27T04:39:31.091Z,14.31
2022-07-27T04:44:34.981Z,14.42
2022-07-27T04:49:38.329Z,14.56
2022-07-27T04:54:41.740Z,14.65
2022-07-27T04:59:45.051Z,14.72
2022-07-27T05:04:48.569Z,14.84
2022-07-27T05:09:51.980Z,14.98
2022-07-27T05:14:55.393Z,15.10
2022-07-27T05:19:58.704Z,15.21
2022-07-27T05:25:02.326Z,15.30
2022-07-27T05:30:07.988Z,15.36
2022-07-27T05:35:11.916Z,15.54
2022-07-27T05:40:15.533Z,15.71
2022-07-27T05:45:19.108Z,15.89
2022-07-27T05:50:22.664Z,16.01
2022-07-27T05:55:26.385Z,16.21
2022-07-27T06:00:29.905Z,16.45
2022-07-27T06:05:33.212Z,16.62
2022-07-27T06:10:41.030Z,16.67
2022-07-27T06:15:44.443Z,16.80
2022-07-27T06:20:47.853Z,16.96
2022-07-27T06:25:51.473Z,17.08
2022-07-27T06:30:54.996Z,17.22
2022-07-27T06:35:59.971Z,17.35
2022-07-27T06:41:05.090Z,17.45
2022-07-27T06:46:12.912Z,17.54
2022-07-27T06:51:16.319Z,17.68
2022-07-27T06:56:21.702Z,17.84
2022-07-27T07:01:25.351Z,17.95
2022-07-27T07:06:28.815Z,18.13
2022-07-27T07:11:32.328Z,18.17
2022-07-27T07:16:37.275Z,18.36
2022-07-27T07:21:40.796Z,18.55
2022-07-27T07:26:44.207Z,18.69
2022-07-27T07:31:47.762Z,18.77
2022-07-27T07:36:51.443Z,18.97
2022-07-27T07:41:54.958Z,19.05
2022-07-27T07:46:58.314Z,19.22
2022-07-27T07:52:02.601Z,19.42
2022-07-27T07:57:05.912Z,19.77
2022-07-27T08:02:09.274Z,20.26
2022-07-27T08:07:12.741Z,20.68
2022-07-27T08:12:16.153Z,20.57
2022-07-27T08:17:19.567Z,20.29
2022-07-27T08:22:23.594Z,19.92
2022-07-27T08:27:27.108Z,19.85
2022-07-27T08:32:30.558Z,20.09
2022-07-27T08:37:33.730Z,20.58
2022-07-27T08:42:37.556Z,20.94
2022-07-27T08:47:42.862Z,21.28
2022-07-27T08:52:46.327Z,20.95
2022-07-27T08:57:53.224Z,20.65
2022-07-27T09:02:57.577Z,20.72
2022-07-27T09:08:12.340Z,21.19
2022-07-27T09:13:34.181Z,21.29
2022-07-27T09:18:40.880Z,20.94
2022-07-27T09:23:51.451Z,20.59
2022-07-27T09:29:01.988Z,20.87
2022-07-27T09:34:05.750Z,21.29
2022-07-27T09:39:09.267Z,21.93
2022-07-27T09:44:42.389Z,22.01
2022-07-27T09:49:36.674Z,21.61
2022-07-27T09:54:44.817Z,21.42
2022-07-27T09:59:48.212Z,21.60
2022-07-27T10:04:51.473Z,21.86
2022-07-27T10:09:56.114Z,22.24
2022-07-27T10:15:01.117Z,22.50
2022-07-27T10:20:16.757Z,22.59
2022-07-27T10:25:22.272Z,22.16
2022-07-27T10:30:28.404Z,22.30
2022-07-27T10:35:35.045Z,22.73
2022-07-27T10:40:39.489Z,23.16
2022-07-27T10:46:00.215Z,23.15
2022-07-27T10:51:09.816Z,22.60
2022-07-27T10:56:13.810Z,22.00
2022-07-27T11:01:18.795Z,21.83
2022-07-27T11:06:33.067Z,22.20
2022-07-27T11:11:39.283Z,22.43
2022-07-27T11:16:54.781Z,22.69
2022-07-27T11:22:04.492Z,23.07
2022-07-27T11:27:16.987Z,23.89
2022-07-27T11:32:22.632Z,24.48
2022-07-27T11:37:25.888Z,24.55
2022-07-27T11:42:39.362Z,24.62
2022-07-27T11:47:42.797Z,24.39
2022-07-27T11:52:59.694Z,24.37
2022-07-27T11:58:05.400Z,24.31
2022-07-27T12:03:20.178Z,24.19
2022-07-27T12:08:24.206Z,24.01
2022-07-27T12:13:34.782Z,23.86
2022-07-27T12:18:44.448Z,23.94
2022-07-27T12:23:52.562Z,24.23
2022-07-27T12:29:13.451Z,24.45
2022-07-27T12:34:17.420Z,24.61
2022-07-27T12:39:31.587Z,24.91
2022-07-27T12:44:37.043Z,25.04
2022-07-27T12:49:46.107Z,24.77
2022-07-27T12:54:49.809Z,24.61
2022-07-27T12:59:53.223Z,24.35
2022-07-27T13:04:57.353Z,24.25
2022-07-27T13:10:03.413Z,24.05
2022-07-27T13:15:09.379Z,23.73
2022-07-27T13:20:14.375Z,23.71
2022-07-27T13:25:18.229Z,23.81
2022-07-27T13:30:21.592Z,24.22
2022-07-27T13:35:24.862Z,24.23
2022-07-27T13:40:28.106Z,24.26
2022-07-27T13:45:31.523Z,24.39
2022-07-27T13:50:46.712Z,24.35
2022-07-27T13:55:50.021Z,24.79
2022-07-27T14:00:53.671Z,25.66
2022-07-27T14:05:57.153Z,27.76
2022-07-27T14:11:02.818Z,27.45
2022-07-27T14:16:08.321Z,26.64
2022-07-27T14:21:11.692Z,28.72
2022-07-27T14:26:15.618Z,32.43
2022-07-27T14:31:18.997Z,32.73
2022-07-27T14:36:22.348Z,32.82
2022-07-27T14:41:25.606Z,38.74
2022-07-27T14:46:29.006Z,35.75
2022-07-27T14:51:32.379Z,40.04
2022-07-27T14:56:36.830Z,44.77
2022-07-27T15:01:41.227Z,43.78
2022-07-27T15:06:44.771Z,38.58
2022-07-27T15:11:48.074Z,42.52
2022-07-27T15:16:53.024Z,40.17
2022-07-27T15:21:56.233Z,34.47
2022-07-27T15:26:59.442Z,32.02
2022-07-27T15:32:03.775Z,30.37
2022-07-27T15:37:09.853Z,30.64
2022-07-27T15:42:13.270Z,36.02
2022-07-27T15:47:16.575Z,38.84
2022-07-27T15:52:19.886Z,35.78
2022-07-27T15:57:23.196Z,31.44
2022-07-27T16:02:26.914Z,28.67
2022-07-27T16:07:32.553Z,31.84
2022-07-27T16:12:45.312Z,36.42
2022-07-27T16:17:48.625Z,34.04
2022-07-27T16:22:51.932Z,30.79
2022-07-27T16:27:55.349Z,29.62
2022-07-27T16:32:59.071Z,28.29
2022-07-27T16:38:02.481Z,29.06
2022-07-27T16:43:05.897Z,31.49
2022-07-27T16:48:10.229Z,33.15
2022-07-27T16:53:13.642Z,31.20
2022-07-27T16:58:17.262Z,29.61
2022-07-27T17:03:21.788Z,31.03
2022-07-27T17:08:27.908Z,29.24
2022-07-27T17:13:34.213Z,26.86
2022-07-27T17:18:40.419Z,25.31
2022-07-27T17:23:45.252Z,24.20
2022-07-27T17:28:48.595Z,23.28
2022-07-27T17:33:53.888Z,22.44
2022-07-27T17:38:57.541Z,21.68
2022-07-27T17:44:02.417Z,21.14
2022-07-27T17:49:07.507Z,20.76
2022-07-27T17:54:11.292Z,20.39
2022-07-27T17:59:36.439Z,20.08
2022-07-27T18:04:39.687Z,19.76
2022-07-27T18:09:43.539Z,19.41
2022-07-27T18:15:06.316Z,19.05
2022-07-27T18:20:11.296Z,18.70
2022-07-27T18:25:14.885Z,18.41
2022-07-27T18:30:19.317Z,18.16
2022-07-27T18:35:22.683Z,17.96
2022-07-27T18:40:26.347Z,17.76
2022-07-27T18:45:34.501Z,17.60
2022-07-27T18:50:41.268Z,17.45
2022-07-27T18:55:45.394Z,17.32
2022-07-27T19:00:48.719Z,17.22
2022-07-27T19:05:54.778Z,17.13
2022-07-27T19:10:58.196Z,17.02
2022-07-27T19:16:01.813Z,16.95
2022-07-27T19:21:05.126Z,16.86
2022-07-27T19:26:10.368Z,16.76
2022-07-27T19:31:23.216Z,16.65
2022-07-27T19:36:27.960Z,16.56
2022-07-27T19:41:31.372Z,16.49
2022-07-27T19:46:34.891Z,16.44
2022-07-27T19:51:38.813Z,16.39
2022-07-27T19:56:42.124Z,16.36
2022-07-27T20:01:45.511Z,16.32
2022-07-27T20:06:49.053Z,16.29
2022-07-27T20:11:55.594Z,16.26
2022-07-27T20:17:04.109Z,16.22
2022-07-27T20:22:08.711Z,16.21
2022-07-27T20:27:12.118Z,16.19
2022-07-27T20:32:15.949Z,16.13
2022-07-27T20:37:19.258Z,16.09
2022-07-27T20:42:22.574Z,16.04
2022-07-27T20:47:28.701Z,15.99
2022-07-27T20:52:34.625Z,15.92
2022-07-27T20:57:38.338Z,15.85
2022-07-27T21:02:41.666Z,15.78
2022-07-27T21:07:46.906Z,15.72
2022-07-27T21:12:50.420Z,15.64
2022-07-27T21:17:53.733Z,15.58
2022-07-27T21:23:15.492Z,15.54
2022-07-27T21:28:23.152Z,15.50
2022-07-27T21:33:28.269Z,15.45
2022-07-27T21:38:31.550Z,15.40
2022-07-27T21:43:35.064Z,15.35
2022-07-27T21:48:38.519Z,15.31
2022-07-27T21:53:43.025Z,15.27
2022-07-27T21:58:46.536Z,15.23
2022-07-27T22:03:50.004Z,15.21
2022-07-27T22:08:53.463Z,15.16
2022-07-27T22:13:56.877Z,15.13
2022-07-27T22:19:00.190Z,15.10
2022-07-27T22:24:06.056Z,15.08
2022-07-27T22:29:09.269Z,15.04
2022-07-27T22:34:12.706Z,15.03
2022-07-27T22:39:16.302Z,15.00
2022-07-27T22:44:20.380Z,14.98
2022-07-27T22:49:24.329Z,15.02
2022-07-27T22:54:28.483Z,15.01
2022-07-27T22:59:32.714Z,15.01
2022-07-27T23:04:36.025Z,15.00
2022-07-27T23:09:39.442Z,15.02
2022-07-27T23:14:43.052Z,15.04
2022-07-27T23:19:52.722Z,15.06
2022-07-27T23:24:56.230Z,15.07
2022-07-27T23:29:59.950Z,15.05
2022-07-27T23:35:03.982Z,15.01
2022-07-27T23:40:08.051Z,14.98
2022-07-27T23:45:12.604Z,14.95
2022-07-27T23:50:16.369Z,14.91
2022-07-27T23:55:19.780Z,14.89
